Terminal Aerodrome Forecast
Issued by NWS

Home | Current Version | Previous Version | Text Only | Print | Product List | Glossary Off
Versions: 1 2 3 4 5 6 7 8 9 10 11 12 13 14

000
FTUS43 KOAX 120520
TAFCDR
TAF
KCDR 120520Z 1206/1306 26005KT P6SM SCT250
     FM121800 28012KT P6SM SKC
     FM130000 27010KT P6SM SKC=

USA.gov is the U.S. government's official web portal to all federal, state and local government web resources and services.